地図

経路データ

SID SEASON NUMBER BASIN SUBBASIN NAME ISO_TIME NATURE LAT LON WMO_WIND WMO_PRES WMO_AGENCY TRACK_TYPE DIST2LAND LANDFALL IFLAG USA_AGENCY USA_ATCF_ID USA_LAT USA_LON USA_RECORD USA_STATUS USA_WIND USA_PRES USA_SSHS USA_R34_NE USA_R34_SE USA_R34_SW USA_R34_NW USA_R50_NE USA_R50_SE USA_R50_SW USA_R50_NW USA_R64_NE USA_R64_SE USA_R64_SW USA_R64_NW USA_POCI USA_ROCI USA_RMW USA_EYE TOKYO_LAT TOKYO_LON TOKYO_GRADE TOKYO_WIND TOKYO_PRES TOKYO_R50_DIR TOKYO_R50_LONG TOKYO_R50_SHORT TOKYO_R30_DIR TOKYO_R30_LONG TOKYO_R30_SHORT TOKYO_LAND CMA_LAT CMA_LON CMA_CAT CMA_WIND CMA_PRES HKO_LAT HKO_LON HKO_CAT HKO_WIND HKO_PRES NEWDELHI_LAT NEWDELHI_LON NEWDELHI_GRADE NEWDELHI_WIND NEWDELHI_PRES NEWDELHI_CI NEWDELHI_DP NEWDELHI_POCI REUNION_LAT REUNION_LON REUNION_TYPE REUNION_WIND REUNION_PRES REUNION_TNUM REUNION_CI REUNION_RMW REUNION_R34_NE REUNION_R34_SE REUNION_R34_SW REUNION_R34_NW REUNION_R50_NE REUNION_R50_SE REUNION_R50_SW REUNION_R50_NW REUNION_R64_NE REUNION_R64_SE REUNION_R64_SW REUNION_R64_NW BOM_LAT BOM_LON BOM_TYPE BOM_WIND BOM_PRES BOM_TNUM BOM_CI BOM_RMW BOM_R34_NE BOM_R34_SE BOM_R34_SW BOM_R34_NW BOM_R50_NE BOM_R50_SE BOM_R50_SW BOM_R50_NW BOM_R64_NE BOM_R64_SE BOM_R64_SW BOM_R64_NW BOM_ROCI BOM_POCI BOM_EYE BOM_POS_METHOD BOM_PRES_METHOD NADI_LAT NADI_LON NADI_CAT NADI_WIND NADI_PRES WELLINGTON_LAT WELLINGTON_LON WELLINGTON_WIND WELLINGTON_PRES DS824_LAT DS824_LON DS824_STAGE DS824_WIND DS824_PRES TD9636_LAT TD9636_LON TD9636_STAGE TD9636_WIND TD9636_PRES TD9635_LAT TD9635_LON TD9635_WIND TD9635_PRES TD9635_ROCI NEUMANN_LAT NEUMANN_LON NEUMANN_CLASS NEUMANN_WIND NEUMANN_PRES MLC_LAT MLC_LON MLC_CLASS MLC_WIND MLC_PRES USA_GUST BOM_GUST BOM_GUST_PER REUNION_GUST REUNION_GUST_PER USA_SEAHGT USA_SEARAD_NE USA_SEARAD_SE USA_SEARAD_SW USA_SEARAD_NW STORM_SPEED STORM_DIR
1885345S13429 1886 57 SI MM NOT_NAMED 1885-12-10 18:00:00 NR -13.0000 68.6000 main 1406 1352 __________O___ -1 -13.0000 68.6000 7 10 234
1885345S13429 1886 57 SI MM NOT_NAMED 1885-12-10 21:00:00 NR -13.2803 68.2073 main 1352 1312 __________P___ -1 -13.2803 68.2073 7 9 234
1885345S13429 1886 57 SI MM NOT_NAMED 1885-12-11 00:00:00 NR -13.5483 67.8312 main 1303 1257 __________P___ -1 -13.5483 67.8312 7 9 234
1885345S13429 1886 57 SI MM NOT_NAMED 1885-12-11 03:00:00 NR -13.7921 67.4895 main 1257 1218 __________P___ -1 -13.7921 67.4895 7 8 234
1885345S13429 1886 57 SI MM NOT_NAMED 1885-12-11 06:00:00 NR -14.0000 67.2000 main 1218 1188 __________O___ -1 -14.0000 67.2000 7 6 233
1885345S13429 1886 57 SI MM NOT_NAMED 1885-12-11 09:00:00 NR -14.1662 66.9725 main 1188 1163 __________P___ -1 -14.1662 66.9725 7 5 233
1885345S13429 1886 57 SI MM NOT_NAMED 1885-12-11 12:00:00 NR -14.3070 66.7842 main 1163 1139 __________P___ -1 -14.3070 66.7842 7 5 232
1885345S13429 1886 57 SI MM NOT_NAMED 1885-12-11 15:00:00 NR -14.4443 66.6038 main 1139 1109 __________P___ -1 -14.4443 66.6038 7 5 232
1885345S13429 1886 57 SI MM NOT_NAMED 1885-12-11 18:00:00 NR -14.6000 66.4000 main 1109 1070 __________O___ -1 -14.6000 66.4000 7 6 232
1885345S13429 1886 57 SI MM NOT_NAMED 1885-12-11 21:00:00 NR -14.8035 66.1248 main 1070 1030 __________P___ -1 -14.8035 66.1248 7 7 233
1885345S13429 1886 57 SI MM NOT_NAMED 1885-12-12 00:00:00 NR -15.0276 65.8226 main 1030 991 __________P___ -1 -15.0276 65.8226 7 8 232
1885345S13429 1886 57 SI MM NOT_NAMED 1885-12-12 03:00:00 NR -15.2629 65.5091 main 985 946 __________P___ -1 -15.2629 65.5091 7 8 232
1885345S13429 1886 57 SI MM NOT_NAMED 1885-12-12 06:00:00 NR -15.5000 65.2000 main 946 906 __________O___ -1 -15.5000 65.2000 7 7 231
1885345S13429 1886 57 SI MM NOT_NAMED 1885-12-12 09:00:00 NR -15.7248 64.9176 main 906 876 __________P___ -1 -15.7248 64.9176 7 7 230
1885345S13429 1886 57 SI MM NOT_NAMED 1885-12-12 12:00:00 NR -15.9498 64.6422 main 867 831 __________P___ -1 -15.9498 64.6422 7 7 229
1885345S13429 1886 57 SI MM NOT_NAMED 1885-12-12 15:00:00 NR -16.1749 64.3707 main 831 792 __________P___ -1 -16.1749 64.3707 7 7 229
1885345S13429 1886 57 SI MM NOT_NAMED 1885-12-12 18:00:00 NR -16.4000 64.1000 main 792 762 __________O___ -1 -16.4000 64.1000 7 7 229
1885345S13429 1886 57 SI MM NOT_NAMED 1885-12-12 21:00:00 NR -16.6126 63.8367 main 753 723 __________P___ -1 -16.6126 63.8367 7 7 230
1885345S13429 1886 57 SI MM NOT_NAMED 1885-12-13 00:00:00 NR -16.8272 63.5718 main 723 684 __________P___ -1 -16.8272 63.5718 7 7 230
1885345S13429 1886 57 SI MM NOT_NAMED 1885-12-13 03:00:00 NR -17.0532 63.2960 main 678 640 __________P___ -1 -17.0532 63.2960 7 7 229
1885345S13429 1886 57 SI MM NOT_NAMED 1885-12-13 06:00:00 NR -17.3000 63.0000 main 640 595 __________O___ -1 -17.3000 63.0000 7 8 229
1885345S13429 1886 57 SI MM NOT_NAMED 1885-12-13 09:00:00 NR -17.5704 62.6674 main 595 547 __________P___ -1 -17.5704 62.6674 7 9 229
1885345S13429 1886 57 SI MM NOT_NAMED 1885-12-13 12:00:00 NR -17.8626 62.3148 main 542 499 __________P___ -1 -17.8626 62.3148 7 9 228
1885345S13429 1886 57 SI MM NOT_NAMED 1885-12-13 15:00:00 NR -18.1735 61.9548 main 499 446 __________P___ -1 -18.1735 61.9548 7 9 227
1885345S13429 1886 57 SI MM NOT_NAMED 1885-12-13 18:00:00 NR -18.5000 61.6000 main 446 403 __________O___ -1 -18.5000 61.6000 7 9 225
1885345S13429 1886 57 SI MM NOT_NAMED 1885-12-13 21:00:00 NR -18.8396 61.2555 main 403 346 __________P___ -1 -18.8396 61.2555 7 9 223
1885345S13429 1886 57 SI MM NOT_NAMED 1885-12-14 00:00:00 NR -19.1924 60.9199 main 346 306 __________P___ -1 -19.1924 60.9199 7 9 221
1885345S13429 1886 57 SI MM NOT_NAMED 1885-12-14 03:00:00 NR -19.5490 60.5993 main 306 264 __________P___ -1 -19.5490 60.5993 7 9 220
1885345S13429 1886 57 SI MM NOT_NAMED 1885-12-14 06:00:00 NR -19.9000 60.3000 main 264 229 __________O___ -1 -19.9000 60.3000 7 9 219
1885345S13429 1886 57 SI MM NOT_NAMED 1885-12-14 09:00:00 NR -20.2279 60.0198 main 229 208 __________P___ -1 -20.2279 60.0198 7 8 218
1885345S13429 1886 57 SI MM NOT_NAMED 1885-12-14 12:00:00 NR -20.5497 59.7619 main 209 185 __________P___ -1 -20.5497 59.7619 7 8 216
1885345S13429 1886 57 SI MM NOT_NAMED 1885-12-14 15:00:00 NR -20.8717 59.5230 main 189 179 __________P___ -1 -20.8717 59.5230 7 8 214
1885345S13429 1886 57 SI MM NOT_NAMED 1885-12-14 18:00:00 NR -21.2000 59.3000 main 183 176 __________O___ -1 -21.2000 59.3000 7 8 212
1885345S13429 1886 57 SI MM NOT_NAMED 1885-12-14 21:00:00 NR -21.5264 59.0890 main 183 182 __________P___ -1 -21.5264 59.0890 7 8 210
1885345S13429 1886 57 SI MM NOT_NAMED 1885-12-15 00:00:00 NR -21.8623 58.8916 main 199 193 __________P___ -1 -21.8623 58.8916 7 8 208
1885345S13429 1886 57 SI MM NOT_NAMED 1885-12-15 03:00:00 NR -22.2170 58.6983 main 216 216 __________P___ -1 -22.2170 58.6983 7 8 206
1885345S13429 1886 57 SI MM NOT_NAMED 1885-12-15 06:00:00 NR -22.6000 58.5000 main 248 248 __________O___ -1 -22.6000 58.5000 7 9 206
1885345S13429 1886 57 SI MM NOT_NAMED 1885-12-15 09:00:00 NR -23.0172 58.2741 main 286 286 __________P___ -1 -23.0172 58.2741 7 10 206
1885345S13429 1886 57 SI MM NOT_NAMED 1885-12-15 12:00:00 NR -23.4626 58.0425 main 334 334 __________P___ -1 -23.4626 58.0425 7 10 205
1885345S13429 1886 57 SI MM NOT_NAMED 1885-12-15 15:00:00 NR -23.9266 57.8147 main 355 355 __________P___ -1 -23.9266 57.8147 7 10 203
1885345S13429 1886 57 SI MM NOT_NAMED 1885-12-15 18:00:00 NR -24.4000 57.6000 main 392 392 __________O___ -1 -24.4000 57.6000 7 10 202
1885345S13429 1886 57 SI MM NOT_NAMED 1885-12-15 21:00:00 NR -24.8750 57.4056 main 432 432 __________P___ -1 -24.8750 57.4056 7 10 200
1885345S13429 1886 57 SI MM NOT_NAMED 1885-12-16 00:00:00 NR -25.3500 57.2282 main 465 465 __________P___ -1 -25.3500 57.2282 7 10 198
1885345S13429 1886 57 SI MM NOT_NAMED 1885-12-16 03:00:00 NR -25.8250 57.0616 main 514 514 __________P___ -1 -25.8250 57.0616 7 10 197
1885345S13429 1886 57 SI MM NOT_NAMED 1885-12-16 06:00:00 NR -26.3000 56.9000 main 563 __________O___ -1 -26.3000 56.9000 7 10 197

IBTrACS Databaseについて

本データベースは、米国NOAAが公開する1842年以降の世界の熱帯低気圧のベストトラックデータアーカイブInternational Best Track Archive for Climate Stewardship (IBTrACS)を、ウェブで閲覧しやすい形式に変換したものです。

最終更新日:2021-10-25